Time;durP1;ratioP1;P1;durP2;ratioP2;P2;SDS_P1;SDS_P2;PMS_P1;PMS_P2;Temp;Humidity;BMP_temperature;BMP_pressure;BME280_temperature;BME280_humidity;BME280_pressure;Samples;Min_cycle;Max_cycle;Signal;HPM_P1;HPM_P2
2021/03/11 00:01:04;;;;;;;7.03;6.00;;;;;;;7.45;49.69;100600.41;5097663;28;20034;-71
2021/03/11 00:03:32;;;;;;;5.50;4.80;;;;;;;7.48;50.13;100605.31;5097224;28;20031;-72
2021/03/11 00:06:01;;;;;;;6.78;5.25;;;;;;;7.47;49.69;100609.22;5097220;28;20031;-71
2021/03/11 00:08:26;;;;;;;7.43;4.97;;;;;;;7.52;49.80;100609.84;5097164;28;20034;-71
2021/03/11 00:10:52;;;;;;;5.93;4.75;;;;;;;7.57;48.37;100614.41;5097678;28;20028;-71
2021/03/11 00:13:21;;;;;;;7.10;5.05;;;;;;;7.54;49.16;100610.31;5097609;28;20079;-72
2021/03/11 00:15:49;;;;;;;6.30;5.10;;;;;;;7.51;49.03;100613.78;5097220;28;20071;-71
2021/03/11 00:18:15;;;;;;;7.75;5.05;;;;;;;7.52;49.56;100622.88;5097197;28;20427;-71
2021/03/11 00:20:44;;;;;;;5.75;5.15;;;;;;;7.50;49.89;100597.47;5096941;28;20028;-71
2021/03/11 00:23:12;;;;;;;5.13;4.55;;;;;;;7.49;49.83;100601.38;5096887;28;20031;-71
2021/03/11 00:25:37;;;;;;;5.07;4.30;;;;;;;7.53;50.25;100597.63;5096833;28;20033;-72
2021/03/11 00:28:08;;;;;;;7.22;4.63;;;;;;;7.46;49.97;100599.31;5096785;28;20031;-71
2021/03/11 00:30:34;;;;;;;6.75;4.47;;;;;;;7.47;50.28;100598.16;5097279;28;20032;-71
2021/03/11 00:33:00;;;;;;;6.75;5.32;;;;;;;7.32;50.27;100603.06;5096979;28;20374;-71
2021/03/11 00:35:28;;;;;;;7.30;5.15;;;;;;;7.27;52.71;100614.31;5097260;28;20027;-72
2021/03/11 00:37:54;;;;;;;5.82;5.10;;;;;;;7.29;51.80;100614.81;5096909;28;20526;-71
2021/03/11 00:40:23;;;;;;;6.50;4.90;;;;;;;7.32;51.81;100618.88;5096581;28;20057;-71
2021/03/11 00:42:50;;;;;;;5.38;4.65;;;;;;;7.31;51.83;100618.06;5096747;28;20027;-71
2021/03/11 00:45:16;;;;;;;6.05;5.15;;;;;;;7.21;51.12;100617.63;5096991;28;20085;-71
2021/03/11 00:47:45;;;;;;;6.95;5.47;;;;;;;7.07;52.66;100624.13;5096722;28;20042;-71
2021/03/11 00:50:17;;;;;;;8.15;4.90;;;;;;;6.90;51.83;100626.13;5093018;28;20055;-71
2021/03/11 00:52:43;;;;;;;5.88;4.63;;;;;;;6.82;51.75;100630.53;5093116;28;20028;-71
2021/03/11 00:55:11;;;;;;;6.43;5.00;;;;;;;6.74;51.77;100640.44;5094305;28;20039;-72
2021/03/11 00:57:37;;;;;;;4.82;4.32;;;;;;;6.68;52.48;100639.00;5093974;28;20056;-72
2021/03/11 01:00:08;;;;;;;5.60;4.68;;;;;;;6.80;53.80;100641.91;5092909;28;20501;-71
2021/03/11 01:02:36;;;;;;;8.07;4.78;;;;;;;6.90;55.11;100642.72;5092731;28;20028;-71
2021/03/11 01:05:03;;;;;;;5.63;5.13;;;;;;;7.11;51.67;100645.63;5093112;28;20547;-71
2021/03/11 01:07:32;;;;;;;5.35;4.47;;;;;;;7.18;51.08;100649.50;5092753;28;20028;-71
2021/03/11 01:10:00;;;;;;;11.93;5.35;;;;;;;7.08;51.56;100658.16;5093330;28;20028;-72
2021/03/11 01:12:31;;;;;;;6.50;4.82;;;;;;;6.96;52.29;100655.25;5093028;28;20051;-71
2021/03/11 01:15:00;;;;;;;5.80;4.38;;;;;;;6.85;56.18;100649.22;5092922;28;20050;-71
2021/03/11 01:17:28;;;;;;;6.97;5.05;;;;;;;6.71;53.96;100659.63;5086448;28;20035;-71
2021/03/11 01:19:56;;;;;;;5.65;4.82;;;;;;;6.68;54.48;100660.31;5092652;28;20047;-71
2021/03/11 01:22:24;;;;;;;7.85;4.85;;;;;;;6.68;56.18;100666.66;5093089;28;20031;-71
2021/03/11 01:24:53;;;;;;;5.18;4.72;;;;;;;6.75;56.77;100669.72;5093448;28;20035;-71
2021/03/11 01:27:21;;;;;;;4.80;4.40;;;;;;;6.72;57.25;100670.41;5092323;28;20031;-72
2021/03/11 01:29:49;;;;;;;4.95;4.45;;;;;;;6.80;56.62;100657.69;5093826;28;20077;-71
2021/03/11 01:32:14;;;;;;;5.43;4.85;;;;;;;6.80;57.26;100663.22;5091916;28;20039;-71
2021/03/11 01:34:43;;;;;;;5.97;4.65;;;;;;;6.75;57.39;100672.50;5091721;28;20040;-71
2021/03/11 01:37:11;;;;;;;6.55;5.57;;;;;;;6.77;57.62;100663.91;5092470;28;20085;-71
2021/03/11 01:39:36;;;;;;;6.28;5.15;;;;;;;6.75;57.25;100661.44;5092429;28;20462;-72
2021/03/11 01:42:02;;;;;;;9.60;6.00;;;;;;;6.69;57.23;100659.97;5092689;28;20024;-71
2021/03/11 01:44:31;;;;;;;10.00;5.75;;;;;;;6.62;58.17;100658.84;5092334;28;20466;-71
2021/03/11 01:46:56;;;;;;;8.25;5.80;;;;;;;6.49;57.81;100657.84;5092679;28;20034;-71
2021/03/11 01:49:22;;;;;;;8.52;5.90;;;;;;;6.46;57.92;100659.31;5092005;28;20496;-71
2021/03/11 01:51:47;;;;;;;6.65;5.15;;;;;;;6.32;58.19;100649.53;5092353;28;20089;-71
2021/03/11 01:54:18;;;;;;;5.05;4.30;;;;;;;6.23;58.63;100655.88;5092290;28;20038;-71
2021/03/11 01:56:44;;;;;;;5.10;4.65;;;;;;;6.22;58.89;100648.69;5092291;28;20028;-71
2021/03/11 01:59:16;;;;;;;5.88;4.70;;;;;;;6.16;59.24;100644.47;5092830;28;20028;-71
2021/03/11 02:01:44;;;;;;;6.90;4.65;;;;;;;6.16;59.46;100638.94;5092260;28;20055;-71
2021/03/11 02:04:10;;;;;;;6.00;4.45;;;;;;;6.12;58.45;100640.72;5092138;28;20066;-72
2021/03/11 02:06:35;;;;;;;5.47;4.53;;;;;;;6.02;58.34;100638.28;5092202;28;20036;-71
2021/03/11 02:09:03;;;;;;;5.18;4.35;;;;;;;6.07;58.99;100646.38;5092496;28;20039;-71
2021/03/11 02:11:43;;;;;;;6.43;4.25;;;;;;;6.07;57.89;100640.88;5092777;28;20020;-71
2021/03/11 02:14:18;;;;;;;10.25;4.80;;;;;;;6.06;56.85;100649.47;5092691;28;20020;-71
2021/03/11 02:16:55;;;;;;;4.07;3.67;;;;;;;6.02;57.27;100644.63;5092806;28;20028;-72
2021/03/11 02:19:39;;;;;;;5.47;4.07;;;;;;;5.99;57.04;100647.19;5094106;28;20123;-72
2021/03/11 02:22:45;;;;;;;4.50;3.92;;;;;;;5.94;57.38;100645.38;5092121;28;20074;-72
2021/03/11 02:25:19;;;;;;;4.43;4.03;;;;;;;5.92;57.99;100638.56;5092945;28;20024;-71
2021/03/11 02:28:25;;;;;;;5.10;4.20;;;;;;;5.89;57.60;100644.69;5092025;28;20028;-71
2021/03/11 02:30:57;;;;;;;5.35;4.70;;;;;;;5.91;57.71;100636.88;5091989;28;20119;-71
2021/03/11 02:33:25;;;;;;;4.30;3.50;;;;;;;5.87;58.91;100644.22;5091971;28;20035;-71
2021/03/11 02:35:56;;;;;;;5.43;4.47;;;;;;;5.86;58.10;100631.50;5091921;28;20118;-71
2021/03/11 02:38:26;;;;;;;4.85;4.35;;;;;;;5.83;58.82;100634.94;5093506;28;20111;-71
2021/03/11 02:41:01;;;;;;;4.25;3.85;;;;;;;5.92;57.96;100644.09;5094870;28;20028;-71
2021/03/11 02:43:27;;;;;;;5.18;4.53;;;;;;;5.96;57.96;100642.31;5095398;28;20028;-72
2021/03/11 02:45:55;;;;;;;5.53;4.53;;;;;;;5.96;58.69;100650.59;5095399;28;20030;-71
2021/03/11 02:48:22;;;;;;;4.35;3.90;;;;;;;5.85;58.99;100654.75;5095712;28;20530;-71
2021/03/11 02:50:48;;;;;;;6.07;4.13;;;;;;;5.87;58.68;100663.53;5077933;28;20433;-71
2021/03/11 02:53:17;;;;;;;4.60;3.78;;;;;;;5.89;58.25;100650.22;5095289;28;20028;-71
2021/03/11 02:55:44;;;;;;;4.72;3.72;;;;;;;5.90;57.18;100647.13;5095795;28;20032;-71
2021/03/11 02:58:11;;;;;;;4.00;3.70;;;;;;;5.89;56.17;100648.25;5078554;28;20044;-71
2021/03/11 03:00:39;;;;;;;4.03;3.13;;;;;;;5.89;54.87;100655.75;5095170;28;20089;-71
2021/03/11 03:03:08;;;;;;;4.22;3.50;;;;;;;5.84;54.79;100664.16;5095626;28;20028;-71
2021/03/11 03:05:35;;;;;;;4.15;3.20;;;;;;;5.93;51.87;100648.47;5095631;28;20050;-71
2021/03/11 03:08:02;;;;;;;3.65;3.35;;;;;;;5.90;51.86;100660.13;5095311;28;20059;-71
2021/03/11 03:10:33;;;;;;;5.00;3.35;;;;;;;5.74;52.61;100643.19;5095252;28;20482;-71
2021/03/11 03:13:03;;;;;;;8.07;3.17;;;;;;;5.92;51.72;100664.25;5094469;28;20040;-71
2021/03/11 03:15:29;;;;;;;4.18;3.78;;;;;;;5.98;53.00;100664.91;5094904;28;20028;-71
2021/03/11 03:17:56;;;;;;;6.97;3.13;;;;;;;5.93;52.46;100674.16;5094871;28;20043;-71
2021/03/11 03:20:24;;;;;;;4.50;3.55;;;;;;;5.94;50.45;100680.50;5095359;28;20024;-71
2021/03/11 03:22:55;;;;;;;4.13;3.35;;;;;;;5.98;52.28;100670.44;5096679;28;20024;-72
2021/03/11 03:25:23;;;;;;;4.38;3.17;;;;;;;6.01;52.06;100669.78;5096012;28;20050;-72
2021/03/11 03:27:49;;;;;;;5.25;3.10;;;;;;;6.05;52.81;100690.09;5094663;28;20027;-71
2021/03/11 03:30:19;;;;;;;3.92;3.50;;;;;;;6.08;52.72;100681.19;5094324;28;20028;-71
2021/03/11 03:32:45;;;;;;;5.00;4.43;;;;;;;5.58;52.82;100684.19;5094753;28;20020;-71
2021/03/11 03:35:15;;;;;;;5.18;3.88;;;;;;;5.68;53.72;100681.16;5095073;28;20028;-71
2021/03/11 03:37:41;;;;;;;6.30;5.03;;;;;;;5.72;55.23;100690.44;5094440;28;20039;-71
2021/03/11 03:40:10;;;;;;;4.90;4.00;;;;;;;5.67;57.57;100690.56;5094967;28;20189;-71
2021/03/11 03:42:52;;;;;;;5.78;4.60;;;;;;;5.56;55.31;100656.09;5094236;28;20028;-71
2021/03/11 03:45:31;;;;;;;5.82;4.07;;;;;;;5.74;53.45;100688.16;5095891;28;20454;-71
2021/03/11 03:48:00;;;;;;;4.70;4.15;;;;;;;5.65;56.59;100697.56;5094194;28;20028;-71
2021/03/11 03:50:30;;;;;;;4.50;4.10;;;;;;;5.61;57.60;100697.38;5093575;28;20508;-71
2021/03/11 03:53:02;;;;;;;7.38;5.68;;;;;;;5.62;58.10;100699.00;5094384;28;20421;-71
2021/03/11 03:55:28;;;;;;;8.00;7.20;;;;;;;5.68;57.92;100694.97;5095673;28;20028;-71
2021/03/11 03:57:56;;;;;;;8.77;7.40;;;;;;;5.65;57.13;100684.56;5094325;28;20382;-71
2021/03/11 04:00:23;;;;;;;8.57;5.45;;;;;;;5.72;57.11;100693.19;5095317;28;20063;-71
2021/03/11 04:02:53;;;;;;;4.95;4.47;;;;;;;5.86;55.89;100687.59;5093874;28;20110;-71
2021/03/11 04:05:20;;;;;;;5.72;4.70;;;;;;;5.85;56.30;100690.66;5094472;28;20032;-71
2021/03/11 04:07:52;;;;;;;5.15;3.80;;;;;;;5.78;55.55;100700.22;5093838;28;20031;-71
2021/03/11 04:10:24;;;;;;;4.88;4.32;;;;;;;5.69;52.71;100696.59;5077170;28;20024;-71
2021/03/11 04:12:51;;;;;;;4.60;4.00;;;;;;;5.73;52.62;100700.34;5094353;28;20057;-71
2021/03/11 04:15:17;;;;;;;4.43;4.03;;;;;;;5.65;55.71;100709.41;5095517;28;20031;-71
2021/03/11 04:17:46;;;;;;;11.32;8.73;;;;;;;5.62;56.45;100707.28;5093653;28;20024;-71
2021/03/11 04:20:16;;;;;;;10.02;9.02;;;;;;;5.65;58.13;100708.59;5094966;28;20566;-71
2021/03/11 04:22:43;;;;;;;5.55;4.15;;;;;;;5.71;53.48;100716.44;5076858;28;20174;-71
2021/03/11 04:25:09;;;;;;;8.95;5.03;;;;;;;5.60;57.19;100719.78;5094122;28;20540;-71
2021/03/11 04:27:36;;;;;;;10.73;8.65;;;;;;;5.64;57.70;100713.28;5093469;28;20038;-71
2021/03/11 04:30:06;;;;;;;10.77;9.23;;;;;;;5.72;58.13;100722.75;5093432;28;20028;-71
2021/03/11 04:32:36;;;;;;;12.05;8.70;;;;;;;5.79;56.30;100723.91;5093382;28;20077;-71
2021/03/11 04:35:02;;;;;;;6.45;5.25;;;;;;;5.69;56.68;100718.66;5093740;28;20032;-72
2021/03/11 04:37:28;;;;;;;5.97;4.90;;;;;;;5.63;58.39;100725.47;5093247;28;20032;-71
2021/03/11 04:39:54;;;;;;;8.10;6.68;;;;;;;5.39;57.65;100697.41;5093233;28;20024;-71
2021/03/11 04:42:20;;;;;;;9.65;7.68;;;;;;;5.52;58.63;100727.69;5076491;28;20532;-71
2021/03/11 04:44:50;;;;;;;10.02;7.38;;;;;;;5.55;58.31;100728.19;5093435;28;20119;-71
2021/03/11 04:47:16;;;;;;;8.27;6.30;;;;;;;5.55;57.96;100737.28;5093433;28;20028;-71
2021/03/11 04:49:43;;;;;;;8.45;7.18;;;;;;;5.50;56.85;100729.13;5092731;28;20516;-71
2021/03/11 04:52:10;;;;;;;12.98;10.32;;;;;;;5.58;56.66;100733.88;5093058;28;20031;-71
2021/03/11 04:54:35;;;;;;;22.55;16.92;;;;;;;5.66;57.05;100744.16;5093574;28;20039;-71
2021/03/11 04:57:02;;;;;;;27.73;20.88;;;;;;;5.52;57.10;100738.72;5093205;28;20479;-71
2021/03/11 04:59:29;;;;;;;22.08;18.23;;;;;;;5.53;57.33;100747.81;5092959;28;20024;-71
2021/03/11 05:01:59;;;;;;;33.03;20.63;;;;;;;5.58;56.94;100750.44;5092409;28;20032;-71
2021/03/11 05:04:28;;;;;;;17.17;12.13;;;;;;;5.60;57.16;100742.69;5093041;28;20020;-71
2021/03/11 05:06:53;;;;;;;9.70;6.57;;;;;;;5.64;56.50;100745.59;5093128;28;20032;-71
2021/03/11 05:09:24;;;;;;;6.32;5.10;;;;;;;5.75;56.10;100756.09;5093348;28;20055;-71
2021/03/11 05:11:56;;;;;;;7.20;4.28;;;;;;;5.74;56.55;100754.44;5093020;28;20458;-71
2021/03/11 05:14:24;;;;;;;5.55;4.72;;;;;;;5.73;56.81;100758.34;5093366;28;20131;-71
2021/03/11 05:16:55;;;;;;;5.32;4.32;;;;;;;5.85;55.15;100762.44;5092692;28;20024;-71
2021/03/11 05:19:21;;;;;;;4.53;3.35;;;;;;;5.67;54.40;100759.59;5092667;28;20035;-71
2021/03/11 05:21:46;;;;;;;5.38;3.97;;;;;;;5.61;54.28;100766.38;5092668;28;20028;-71
2021/03/11 05:24:12;;;;;;;5.05;3.75;;;;;;;5.62;53.67;100765.25;5093027;28;20176;-71
2021/03/11 05:26:38;;;;;;;7.00;4.43;;;;;;;5.68;54.39;100766.75;5092508;28;20031;-71
2021/03/11 05:29:03;;;;;;;7.07;5.00;;;;;;;5.66;57.58;100769.03;5093097;28;20074;-71
2021/03/11 05:31:32;;;;;;;4.93;4.43;;;;;;;5.82;54.27;100765.88;5092854;28;20049;-71
2021/03/11 05:34:00;;;;;;;5.05;4.50;;;;;;;5.88;53.32;100770.13;5092525;28;20028;-71
2021/03/11 05:36:27;;;;;;;9.07;4.88;;;;;;;6.04;56.49;100769.41;5092496;28;20028;-71
2021/03/11 05:38:55;;;;;;;6.68;4.82;;;;;;;6.33;56.09;100772.75;5093507;28;20036;-71
2021/03/11 05:41:27;;;;;;;6.60;5.78;;;;;;;6.90;53.21;100767.22;5092522;28;20024;-71
2021/03/11 05:43:53;;;;;;;5.75;4.97;;;;;;;7.60;52.48;100777.13;5092623;28;20020;-72
2021/03/11 05:46:23;;;;;;;7.65;5.35;;;;;;;8.24;49.68;100779.84;5093736;28;20024;-72
2021/03/11 05:48:54;;;;;;;5.05;4.43;;;;;;;8.88;48.48;100787.22;5096214;28;20132;-71
2021/03/11 05:51:19;;;;;;;6.97;4.88;;;;;;;9.56;47.07;100784.22;5095986;28;20469;-71
2021/03/11 05:53:48;;;;;;;6.40;5.75;;;;;;;10.14;45.55;100787.84;5095980;28;20035;-71
2021/03/11 05:56:19;;;;;;;6.55;5.95;;;;;;;10.68;44.73;100788.50;5095962;28;20122;-72
2021/03/11 05:58:45;;;;;;;7.07;5.57;;;;;;;11.25;42.66;100783.88;5095664;28;20028;-71
2021/03/11 06:01:15;;;;;;;11.90;6.88;;;;;;;11.80;41.56;100782.25;5095954;28;20034;-71
2021/03/11 06:03:41;;;;;;;8.73;5.65;;;;;;;12.40;40.50;100791.41;5095625;28;20027;-71
2021/03/11 06:06:07;;;;;;;6.03;4.68;;;;;;;12.26;38.91;100788.28;5079078;28;20074;-71
2021/03/11 06:08:36;;;;;;;6.13;3.83;;;;;;;12.65;37.76;100805.19;5095541;28;20481;-71
2021/03/11 06:11:05;;;;;;;6.25;4.32;;;;;;;13.10;37.83;100813.00;5095587;28;20493;-72
2021/03/11 06:13:31;;;;;;;4.47;4.07;;;;;;;13.62;38.01;100809.78;5098453;28;20084;-71
2021/03/11 06:16:08;;;;;;;5.82;4.55;;;;;;;14.14;36.98;100822.38;5099641;28;20031;-71
2021/03/11 06:18:38;;;;;;;6.95;4.70;;;;;;;14.42;35.26;100824.06;5083271;28;20059;-71
2021/03/11 06:21:07;;;;;;;5.28;4.30;;;;;;;14.51;34.80;100833.06;5099577;28;20080;-71
2021/03/11 06:23:33;;;;;;;5.43;4.30;;;;;;;14.81;35.56;100829.56;5099690;28;20366;-70
2021/03/11 06:26:02;;;;;;;8.48;4.60;;;;;;;14.80;34.10;100833.53;5099489;28;20118;-71
2021/03/11 06:28:46;;;;;;;8.40;4.53;;;;;;;15.38;33.68;100842.41;5099137;28;20122;-71
2021/03/11 06:31:29;;;;;;;9.95;4.03;;;;;;;14.67;33.94;100847.75;5099068;28;20031;-70
2021/03/11 06:33:59;;;;;;;8.33;6.80;;;;;;;14.02;35.56;100844.94;5099092;28;20073;-70
2021/03/11 06:36:27;;;;;;;9.73;8.30;;;;;;;12.50;37.57;100843.91;5098951;28;20039;-71
2021/03/11 06:39:22;;;;;;;9.48;8.45;;;;;;;12.72;37.59;100850.03;5082321;28;20027;-70
2021/03/11 06:41:48;;;;;;;9.75;8.10;;;;;;;12.96;37.32;100863.78;5098893;28;20027;-71
2021/03/11 06:44:14;;;;;;;10.55;7.32;;;;;;;12.82;36.80;100855.06;5098746;28;20062;-70
2021/03/11 06:46:56;;;;;;;7.65;6.10;;;;;;;13.21;35.56;100866.34;5099194;28;20114;-70
2021/03/11 06:49:24;;;;;;;8.10;6.30;;;;;;;13.67;34.43;100867.41;5098724;28;20490;-71
2021/03/11 06:52:15;;;;;;;10.57;6.47;;;;;;;13.66;34.60;100874.19;5098577;28;20019;-70
2021/03/11 06:54:58;;;;;;;7.63;6.45;;;;;;;14.12;33.77;100877.94;5098612;28;20035;-70
2021/03/11 06:57:31;;;;;;;8.95;5.57;;;;;;;13.61;34.94;100886.47;5098605;28;20027;-70
2021/03/11 06:59:59;;;;;;;7.55;5.32;;;;;;;14.38;34.00;100884.78;5099168;28;20065;-70
2021/03/11 07:02:26;;;;;;;12.23;6.55;;;;;;;14.53;33.71;100883.91;5098461;28;20054;-71
2021/03/11 07:04:56;;;;;;;7.22;5.97;;;;;;;15.16;32.26;100900.16;5098468;28;20084;-71
2021/03/11 07:07:26;;;;;;;6.22;5.63;;;;;;;15.07;32.87;100899.59;5082158;28;20070;-71
2021/03/11 07:09:55;;;;;;;7.63;6.22;;;;;;;15.31;32.22;100915.22;5099184;28;20111;-71
2021/03/11 07:12:24;;;;;;;7.75;6.35;;;;;;;15.41;32.23;100914.56;5098288;28;20122;-72
2021/03/11 07:14:50;;;;;;;5.40;4.72;;;;;;;14.75;32.57;100920.69;5098244;28;20084;-71
2021/03/11 07:17:20;;;;;;;5.60;4.68;;;;;;;15.79;32.09;100923.13;5098120;28;20035;-71
2021/03/11 07:20:14;;;;;;;7.00;5.03;;;;;;;15.38;32.10;100931.31;5098064;28;20026;-71
2021/03/11 07:22:41;;;;;;;7.68;5.40;;;;;;;15.92;31.87;100927.31;5097670;28;20131;-70
2021/03/11 07:25:29;;;;;;;8.32;5.85;;;;;;;16.33;31.31;100935.81;5097095;28;20077;-69
2021/03/11 07:27:58;;;;;;;8.80;6.22;;;;;;;16.44;31.00;100937.56;5097686;28;20040;-71
2021/03/11 07:30:25;;;;;;;10.90;5.72;;;;;;;15.95;31.74;100943.38;5098533;28;20027;-70
2021/03/11 07:33:02;;;;;;;4.93;4.32;;;;;;;16.41;30.00;100949.56;5097661;28;20032;-70
2021/03/11 07:35:39;;;;;;;9.85;5.05;;;;;;;15.98;31.46;100948.25;5097829;28;20062;-70
2021/03/11 07:38:06;;;;;;;31.38;6.97;;;;;;;16.58;30.74;100953.78;5079043;28;20032;-70
2021/03/11 07:40:33;;;;;;;9.90;7.03;;;;;;;17.10;29.66;100956.69;5115191;28;20422;-71
2021/03/11 07:43:01;;;;;;;10.82;9.25;;;;;;;16.22;30.12;100956.16;5097238;28;20119;-71
2021/03/11 07:45:31;;;;;;;13.65;9.75;;;;;;;16.46;30.81;100959.66;5097370;28;20024;-71
2021/03/11 07:48:00;;;;;;;18.23;14.18;;;;;;;16.68;29.28;100953.06;5097610;28;20027;-71
2021/03/11 07:50:29;;;;;;;16.58;12.10;;;;;;;17.11;28.60;100942.25;5096825;28;20504;-71
2021/03/11 07:52:55;;;;;;;21.27;15.13;;;;;;;16.87;28.99;100931.59;5097285;28;20028;-71
2021/03/11 07:55:27;;;;;;;22.05;16.58;;;;;;;16.89;29.76;100960.94;5097367;28;20042;-68
2021/03/11 07:57:57;;;;;;;17.33;12.20;;;;;;;17.67;28.78;100968.38;5097106;28;20023;-71
2021/03/11 08:00:29;;;;;;;12.48;10.57;;;;;;;17.61;28.02;100936.97;5096976;28;20038;-72
2021/03/11 08:03:04;;;;;;;10.15;7.43;;;;;;;18.03;27.66;100975.03;5096940;28;20024;-72
2021/03/11 08:05:31;;;;;;;7.18;5.45;;;;;;;17.81;27.84;100974.13;5097014;28;20036;-71
2021/03/11 08:08:21;;;;;;;8.93;5.40;;;;;;;18.00;26.77;100981.44;5096921;28;20027;-72
2021/03/11 08:10:51;;;;;;;5.80;4.93;;;;;;;18.07;27.80;100973.06;5096926;28;20039;-72
2021/03/11 08:13:32;;;;;;;4.85;4.20;;;;;;;17.52;28.32;100984.34;5097383;28;20169;-72
2021/03/11 08:16:00;;;;;;;7.15;5.05;;;;;;;17.85;26.71;100976.97;5097373;28;20024;-72
2021/03/11 08:18:35;;;;;;;5.88;4.38;;;;;;;17.83;27.61;100987.78;5079922;28;20027;-72
2021/03/11 08:21:27;;;;;;;4.72;4.28;;;;;;;18.02;27.27;100996.75;5097443;28;20553;-73
2021/03/11 08:23:57;;;;;;;5.88;4.25;;;;;;;18.92;25.67;100997.13;5096369;28;20532;-72
2021/03/11 08:29:22;;;;;;;7.00;4.85;;;;;;;17.31;27.61;101001.06;5114867;28;20034;-71
2021/03/11 08:31:49;;;;;;;12.93;7.00;;;;;;;17.28;28.87;101006.25;5096752;28;20032;-71
2021/03/11 08:34:32;;;;;;;8.32;6.90;;;;;;;16.17;30.55;101007.03;5096881;28;20453;-71
2021/03/11 08:37:15;;;;;;;5.97;5.38;;;;;;;16.65;28.81;101004.41;5096753;28;20034;-71
2021/03/11 08:39:44;;;;;;;7.53;4.73;;;;;;;16.93;28.17;101011.53;5097525;28;20043;-71
2021/03/11 08:42:49;;;;;;;10.77;5.45;;;;;;;16.70;29.48;101015.31;5095993;28;20114;-71
2021/03/11 08:45:33;;;;;;;;;;;;;;;15.81;30.73;101007.72;5097856;28;20529;-72
2021/03/11 08:48:21;;;;;;;7.78;6.47;;;;;;;16.47;31.16;101009.03;5096554;28;19911;-72
2021/03/11 08:50:50;;;;;;;10.15;7.07;;;;;;;16.69;30.30;101018.50;5095983;28;20047;-72
2021/03/11 08:53:37;;;;;;;10.55;6.57;;;;;;;17.06;29.03;101021.34;5096298;28;20469;-72
2021/03/11 08:56:18;;;;;;;8.75;6.40;;;;;;;16.69;29.02;101005.25;5096882;28;20036;-73
2021/03/11 08:58:56;;;;;;;6.45;4.95;;;;;;;16.32;28.00;101024.88;5096068;28;20099;-72
2021/03/11 09:01:34;;;;;;;6.13;4.95;;;;;;;17.00;27.58;101008.84;5095653;28;20042;-73
2021/03/11 09:04:00;;;;;;;6.07;5.20;;;;;;;17.73;27.30;101009.03;5095996;28;20438;-73
2021/03/11 09:06:58;;;;;;;5.82;5.32;;;;;;;18.22;26.26;101016.19;5096177;28;20028;-73
2021/03/11 09:09:48;;;;;;;7.85;5.25;;;;;;;18.61;25.38;101015.53;5095682;28;20505;-71
2021/03/11 09:12:21;;;;;;;5.60;4.60;;;;;;;19.41;24.45;101012.47;5095784;28;20070;-71
2021/03/11 09:14:52;;;;;;;15.93;5.37;;;;;;;18.89;27.64;101020.47;5095904;28;20032;-76
2021/03/11 09:17:19;;;;;;;12.77;11.10;;;;;;;18.70;25.88;101025.25;5095814;28;20466;-73
2021/03/11 09:20:00;;;;;;;5.28;4.72;;;;;;;18.80;24.80;101023.66;5095289;28;20032;-73
2021/03/11 09:22:31;;;;;;;6.22;4.63;;;;;;;18.60;25.26;101020.34;5095682;28;20036;-73
2021/03/11 09:25:13;;;;;;;7.63;5.45;;;;;;;19.00;23.84;101016.44;5096473;28;20024;-73
2021/03/11 09:27:51;;;;;;;14.95;8.32;;;;;;;19.24;23.86;101020.53;5095635;28;20028;-73
2021/03/11 09:30:25;;;;;;;7.65;5.63;;;;;;;19.30;25.49;101018.09;5114151;28;20153;-73
2021/03/11 09:32:56;;;;;;;;;;;;;;;19.66;24.22;101024.59;5114323;28;20035;-73
2021/03/11 09:35:26;;;;;;;6.38;4.50;;;;;;;19.82;23.19;101027.78;5095545;28;19984;-73
2021/03/11 09:37:56;;;;;;;12.00;5.00;;;;;;;18.30;24.23;101000.91;5095528;28;20020;-73
2021/03/11 09:40:21;;;;;;;6.03;4.30;;;;;;;17.75;25.26;101018.72;5095545;28;20053;-73
2021/03/11 09:43:05;;;;;;;6.20;4.20;;;;;;;17.86;25.36;101021.59;5095537;28;20027;-73
2021/03/11 09:45:34;;;;;;;5.75;4.32;;;;;;;17.70;25.23;100979.66;5095673;28;20030;-73
2021/03/11 09:48:27;;;;;;;5.50;4.15;;;;;;;18.37;24.74;101020.66;5098066;28;20023;-73
2021/03/11 09:51:06;;;;;;;4.85;4.45;;;;;;;17.24;26.16;101018.69;5069677;28;20087;-73
2021/03/11 09:53:36;;;;;;;7.40;5.13;;;;;;;16.43;26.79;101025.81;5076145;28;20218;-72
2021/03/11 09:56:07;;;;;;;6.50;4.78;;;;;;;16.53;27.34;101024.34;5077031;28;20095;-72
2021/03/11 09:58:44;;;;;;;6.63;5.53;;;;;;;16.58;26.58;101024.00;5076093;28;20036;-72
2021/03/11 10:01:40;;;;;;;10.55;7.40;;;;;;;16.90;26.96;101020.78;5076961;28;20403;-73
2021/03/11 10:04:17;;;;;;;7.72;5.97;;;;;;;16.92;26.45;101024.00;5075758;28;20068;-73
2021/03/11 10:07:00;;;;;;;12.52;9.30;;;;;;;18.74;25.49;101030.88;5075796;28;20543;-73
2021/03/11 10:09:39;;;;;;;6.55;5.07;;;;;;;19.18;24.12;101030.59;5075720;28;20032;-73
2021/03/11 10:12:10;;;;;;;6.40;4.82;;;;;;;18.66;24.53;101029.22;5076899;28;20032;-73
2021/03/11 10:14:37;;;;;;;6.30;5.70;;;;;;;19.03;24.22;101021.31;5075246;28;20039;-71
2021/03/11 10:17:07;;;;;;;5.72;4.35;;;;;;;19.09;24.02;101018.88;5074902;28;20036;-71
2021/03/11 10:19:36;;;;;;;6.43;5.38;;;;;;;19.99;23.27;101026.13;5074658;28;20387;-73
2021/03/11 10:22:19;;;;;;;9.38;7.38;;;;;;;19.77;23.51;101028.19;5075289;28;20028;-73
2021/03/11 10:24:52;;;;;;;6.40;5.43;;;;;;;19.83;22.97;101025.75;5075773;28;20394;-73
2021/03/11 10:27:30;;;;;;;6.70;5.97;;;;;;;19.51;22.99;101031.41;5075066;28;20390;-73
2021/03/11 10:30:05;;;;;;;6.22;5.63;;;;;;;19.53;23.16;101032.59;5075227;28;20066;-73
2021/03/11 10:32:31;;;;;;;5.50;5.00;;;;;;;19.93;23.15;101021.31;5074897;28;20363;-73
2021/03/11 10:34:57;;;;;;;10.05;4.88;;;;;;;19.92;22.97;101036.63;5074736;28;20421;-73
2021/03/11 10:37:39;;;;;;;7.75;5.35;;;;;;;20.12;23.29;101034.97;5074954;28;20131;-73
2021/03/11 10:40:11;;;;;;;8.43;4.85;;;;;;;20.38;22.86;101031.66;5075150;28;20032;-73
2021/03/11 10:42:45;;;;;;;5.93;4.90;;;;;;;19.74;23.46;101031.81;5074872;28;20132;-74
2021/03/11 10:45:17;;;;;;;6.50;5.22;;;;;;;20.34;23.34;101036.50;5074928;28;20107;-74
2021/03/11 10:48:15;;;;;;;6.43;5.35;;;;;;;19.58;24.08;101034.22;5074925;28;20036;-74
2021/03/11 10:50:49;;;;;;;6.72;5.18;;;;;;;19.65;23.07;101050.38;5050465;28;20044;-73
2021/03/11 10:53:17;;;;;;;5.47;3.50;;;;;;;19.01;23.65;101049.06;5095153;28;20492;-74
2021/03/11 10:55:49;;;;;;;3.90;3.60;;;;;;;20.02;23.56;101053.53;5095074;28;20038;-74
2021/03/11 10:58:24;;;;;;;3.45;2.67;;;;;;;19.85;22.53;101049.53;5094364;28;20024;-73
2021/03/11 11:01:10;;;;;;;3.90;3.00;;;;;;;18.61;22.81;101050.16;5095305;28;20028;-73
2021/03/11 11:03:40;;;;;;;3.10;2.80;;;;;;;18.25;23.55;101026.63;5094296;28;20030;-74
2021/03/11 11:06:09;;;;;;;3.83;2.22;;;;;;;18.48;23.15;101054.50;5096109;28;20104;-73
2021/03/11 11:08:42;;;;;;;2.95;2.72;;;;;;;18.53;22.97;101048.50;5094975;28;20448;-74
2021/03/11 11:11:12;;;;;;;2.38;2.17;;;;;;;17.54;23.58;101055.13;5096503;28;20035;-72
2021/03/11 11:13:40;;;;;;;3.75;2.55;;;;;;;18.15;23.05;101038.66;5094655;28;20035;-73
2021/03/11 11:16:11;;;;;;;7.78;2.40;;;;;;;17.65;23.58;101044.75;5094671;28;20035;-73
2021/03/11 11:18:41;;;;;;;4.80;2.95;;;;;;;17.40;23.39;101046.53;5094393;28;20020;-72
2021/03/11 11:21:08;;;;;;;2.65;2.42;;;;;;;17.56;23.54;101049.88;5096205;28;20028;-73
2021/03/11 11:23:36;;;;;;;3.40;3.10;;;;;;;17.60;24.92;101045.09;5094759;28;20051;-73
2021/03/11 11:26:05;;;;;;;4.32;3.53;;;;;;;17.34;27.45;101039.66;5094437;28;20036;-72
2021/03/11 11:28:34;;;;;;;4.43;4.03;;;;;;;16.97;28.05;101049.75;5094967;28;20441;-73
2021/03/11 11:31:05;;;;;;;3.53;3.17;;;;;;;17.25;27.92;101037.97;5094577;28;20032;-72
2021/03/11 11:33:31;;;;;;;4.88;4.05;;;;;;;18.18;27.84;101033.06;5094390;28;20043;-72
2021/03/11 11:35:59;;;;;;;5.15;3.75;;;;;;;17.82;28.21;101040.47;5094778;28;20036;-72
2021/03/11 11:38:25;;;;;;;4.68;4.28;;;;;;;17.99;27.89;101027.72;5094290;28;20098;-72
2021/03/11 11:40:50;;;;;;;4.13;3.42;;;;;;;18.26;28.20;101034.69;5094582;28;20123;-73
2021/03/11 11:43:18;;;;;;;4.72;4.07;;;;;;;17.87;28.32;101016.78;5094832;28;20035;-72
2021/03/11 11:45:44;;;;;;;4.50;3.40;;;;;;;18.26;27.98;101017.00;5094152;28;20032;-72
2021/03/11 11:48:12;;;;;;;4.80;3.97;;;;;;;17.94;28.69;101022.44;5094013;28;20112;-73
2021/03/11 11:50:38;;;;;;;6.10;3.28;;;;;;;17.79;28.75;101011.13;5094099;28;20047;-72